createdAt,value
2023-03-11T00:00:47.535Z,73.81
2023-03-11T00:03:16.769Z,73.97
2023-03-11T00:05:46.205Z,73.96
2023-03-11T00:08:16.556Z,74.02
2023-03-11T00:10:45.680Z,74.19
2023-03-11T00:13:14.877Z,74.16
2023-03-11T00:15:44.898Z,74.35
2023-03-11T00:18:12.410Z,74.35
2023-03-11T00:20:42.382Z,74.46
2023-03-11T00:23:11.118Z,74.54
2023-03-11T00:25:38.841Z,74.76
2023-03-11T00:28:07.576Z,74.85
2023-03-11T00:30:43.837Z,74.70
2023-03-11T00:33:13.212Z,74.92
2023-03-11T00:35:41.836Z,74.98
2023-03-11T00:38:17.000Z,74.80
2023-03-11T00:40:46.727Z,74.93
2023-03-11T00:43:14.653Z,74.89
2023-03-11T00:45:46.260Z,74.86
2023-03-11T00:48:14.620Z,74.87
2023-03-11T00:50:42.278Z,74.86
2023-03-11T00:53:11.685Z,74.98
2023-03-11T00:55:38.711Z,74.92
2023-03-11T00:58:11.515Z,74.86
2023-03-11T01:00:46.377Z,74.96
2023-03-11T01:03:13.601Z,74.95
2023-03-11T01:05:40.767Z,74.97
2023-03-11T01:08:08.307Z,74.91
2023-03-11T01:10:35.978Z,74.87
2023-03-11T01:13:05.349Z,74.88
2023-03-11T01:15:35.924Z,74.99
2023-03-11T01:18:09.931Z,75.09
2023-03-11T01:20:38.988Z,75.15
2023-03-11T01:23:08.067Z,75.16
2023-03-11T01:25:37.768Z,75.18
2023-03-11T01:28:05.719Z,75.28
2023-03-11T01:30:35.450Z,75.21
2023-03-11T01:33:04.130Z,75.31
2023-03-11T01:35:36.328Z,75.29
2023-03-11T01:38:03.692Z,75.31
2023-03-11T01:40:37.830Z,75.18
2023-03-11T01:43:40.126Z,75.25
2023-03-11T01:46:28.479Z,75.33
2023-03-11T01:49:02.203Z,75.42
2023-03-11T01:51:48.999Z,75.31
2023-03-11T01:54:24.358Z,75.35
2023-03-11T01:56:52.494Z,75.62
2023-03-11T01:59:22.980Z,75.54
2023-03-11T02:02:08.924Z,75.48
2023-03-11T02:04:37.538Z,75.65
2023-03-11T02:07:07.246Z,75.60
2023-03-11T02:09:34.384Z,75.73
2023-03-11T02:12:07.055Z,75.73
2023-03-11T02:14:36.130Z,75.73
2023-03-11T02:17:04.301Z,75.67
2023-03-11T02:19:54.699Z,75.65
2023-03-11T02:22:22.182Z,75.60
2023-03-11T02:25:22.999Z,75.63
2023-03-11T02:27:54.851Z,75.48
2023-03-11T02:30:27.597Z,75.50
2023-03-11T02:32:59.440Z,75.60
2023-03-11T02:35:27.353Z,75.61
2023-03-11T02:37:55.994Z,75.52
2023-03-11T02:40:25.837Z,75.66
2023-03-11T02:43:00.495Z,75.54
2023-03-11T02:45:31.015Z,75.51
2023-03-11T02:47:59.952Z,75.70
2023-03-11T02:50:29.813Z,75.63
2023-03-11T02:52:57.386Z,75.79
2023-03-11T02:55:24.512Z,75.93
2023-03-11T02:57:51.521Z,76.20
2023-03-11T03:00:24.456Z,76.45
2023-03-11T03:02:57.659Z,76.32
2023-03-11T03:05:26.000Z,76.31
2023-03-11T03:07:53.067Z,76.75
2023-03-11T03:10:22.443Z,76.86
2023-03-11T03:12:50.203Z,77.03
2023-03-11T03:15:22.773Z,77.34
2023-03-11T03:17:52.893Z,77.54
2023-03-11T03:20:22.826Z,77.55
2023-03-11T03:22:55.969Z,77.56
2023-03-11T03:25:27.477Z,77.45
2023-03-11T03:27:56.667Z,77.57
2023-03-11T03:30:24.736Z,77.47
2023-03-11T03:32:54.212Z,77.25
2023-03-11T03:35:21.677Z,77.31
2023-03-11T03:38:18.210Z,77.45
2023-03-11T03:40:48.535Z,77.44
2023-03-11T03:43:18.945Z,77.35
2023-03-11T03:45:56.406Z,77.44
2023-03-11T03:48:24.825Z,77.54
2023-03-11T03:50:54.960Z,77.69
2023-03-11T03:53:22.082Z,77.60
2023-03-11T03:55:51.038Z,77.34
2023-03-11T03:58:19.643Z,77.45
2023-03-11T04:00:46.727Z,77.38
2023-03-11T04:03:14.305Z,77.31
2023-03-11T04:05:48.133Z,77.28
2023-03-11T04:08:15.605Z,77.34
2023-03-11T04:10:43.463Z,77.50
2023-03-11T04:13:11.289Z,77.33
2023-03-11T04:15:39.522Z,77.67
2023-03-11T04:18:07.266Z,77.56
2023-03-11T04:20:34.356Z,77.56
2023-03-11T04:23:01.796Z,77.34
2023-03-11T04:25:31.646Z,77.39
2023-03-11T04:28:01.626Z,77.66
2023-03-11T04:30:28.960Z,77.60
2023-03-11T04:32:57.782Z,77.69
2023-03-11T04:35:25.557Z,77.66
2023-03-11T04:37:53.176Z,77.81
2023-03-11T04:40:20.464Z,77.85
2023-03-11T04:42:47.715Z,77.95
2023-03-11T04:45:15.788Z,77.95
2023-03-11T04:47:49.856Z,78.08
2023-03-11T04:50:18.481Z,77.99
2023-03-11T04:52:46.256Z,78.01
2023-03-11T04:55:14.795Z,78.50
2023-03-11T04:57:44.195Z,78.55
2023-03-11T05:00:15.959Z,78.18
2023-03-11T05:02:47.867Z,78.22
2023-03-11T05:05:17.057Z,78.34
2023-03-11T05:07:44.345Z,78.22
2023-03-11T05:10:13.240Z,78.24
2023-03-11T05:12:41.192Z,78.42
2023-03-11T05:15:08.522Z,78.37
2023-03-11T05:17:35.690Z,78.15
2023-03-11T05:20:02.729Z,78.19
2023-03-11T05:22:32.965Z,78.01
2023-03-11T05:25:00.458Z,78.07
2023-03-11T05:27:27.870Z,78.07
2023-03-11T05:29:59.500Z,77.92
2023-03-11T05:32:28.275Z,77.95
2023-03-11T05:34:55.647Z,77.84
2023-03-11T05:37:26.380Z,77.71
2023-03-11T05:39:54.823Z,77.69
2023-03-11T05:42:23.113Z,77.78
2023-03-11T05:44:53.413Z,77.89
2023-03-11T05:47:23.369Z,77.72
2023-03-11T05:49:50.940Z,77.79
2023-03-11T05:52:19.781Z,77.86
2023-03-11T05:54:51.486Z,78.00
2023-03-11T05:57:22.130Z,77.87
2023-03-11T05:59:49.226Z,77.83
2023-03-11T06:02:17.005Z,77.71
2023-03-11T06:04:44.460Z,77.67
2023-03-11T06:07:12.328Z,77.82
2023-03-11T06:09:41.363Z,77.72
2023-03-11T06:12:13.037Z,77.74
2023-03-11T06:14:51.033Z,77.77
2023-03-11T06:17:18.413Z,77.60
2023-03-11T06:19:45.496Z,77.63
2023-03-11T06:22:12.669Z,77.57
2023-03-11T06:24:39.945Z,77.60
2023-03-11T06:27:12.316Z,77.56
2023-03-11T06:29:41.445Z,77.50
2023-03-11T06:32:09.848Z,77.44
2023-03-11T06:34:40.067Z,77.50
2023-03-11T06:37:07.832Z,77.41
2023-03-11T06:39:34.963Z,77.48
2023-03-11T06:42:02.348Z,77.34
2023-03-11T06:44:30.026Z,77.40
2023-03-11T06:46:58.750Z,77.44
2023-03-11T06:49:28.160Z,77.44
2023-03-11T06:51:55.362Z,77.47
2023-03-11T06:54:23.306Z,77.43
2023-03-11T06:56:51.687Z,77.31
2023-03-11T06:59:19.310Z,77.29
2023-03-11T07:01:46.586Z,77.36
2023-03-11T07:04:14.402Z,77.34
2023-03-11T07:06:43.640Z,77.27
2023-03-11T07:09:18.651Z,77.29
2023-03-11T07:11:46.453Z,77.35
2023-03-11T07:14:18.786Z,77.36
2023-03-11T07:16:49.827Z,77.24
2023-03-11T07:19:37.298Z,77.34
2023-03-11T07:22:04.487Z,77.34
2023-03-11T07:24:31.526Z,77.27
2023-03-11T07:26:58.672Z,77.31
2023-03-11T07:29:25.715Z,77.28
2023-03-11T07:31:52.902Z,77.32
2023-03-11T07:34:20.057Z,77.34
2023-03-11T07:36:47.307Z,77.30
2023-03-11T07:39:17.710Z,77.22
2023-03-11T07:41:48.656Z,77.14
2023-03-11T07:44:17.115Z,77.20
2023-03-11T07:46:45.172Z,77.21
2023-03-11T07:49:17.558Z,77.20
2023-03-11T07:51:45.382Z,77.15
2023-03-11T07:54:14.712Z,77.19
2023-03-11T07:56:42.562Z,77.21
2023-03-11T07:59:12.633Z,77.08
2023-03-11T08:01:41.584Z,77.11
2023-03-11T08:04:14.333Z,77.08
2023-03-11T08:06:45.731Z,77.08
2023-03-11T08:09:13.856Z,77.10
2023-03-11T08:11:43.929Z,77.08
2023-03-11T08:14:11.335Z,77.14
2023-03-11T08:16:41.282Z,77.05
2023-03-11T08:19:11.123Z,77.10
2023-03-11T08:21:38.364Z,77.03
2023-03-11T08:24:06.999Z,77.06
2023-03-11T08:26:34.764Z,77.01
2023-03-11T08:29:04.557Z,76.87
2023-03-11T08:31:33.765Z,76.93
2023-03-11T08:34:07.954Z,77.06
2023-03-11T08:36:35.526Z,77.01
2023-03-11T08:39:02.610Z,77.15
2023-03-11T08:41:30.197Z,77.06
2023-03-11T08:43:57.214Z,77.03
2023-03-11T08:46:36.301Z,77.08
2023-03-11T08:49:04.673Z,76.90
2023-03-11T08:51:34.084Z,76.98
2023-03-11T08:54:02.168Z,77.21
2023-03-11T08:56:31.904Z,77.05
2023-03-11T08:58:59.625Z,76.92
2023-03-11T09:01:27.670Z,76.87
2023-03-11T09:03:55.398Z,76.68
2023-03-11T09:06:22.744Z,76.98
2023-03-11T09:08:49.914Z,76.89
2023-03-11T09:11:18.980Z,76.72
2023-03-11T09:13:45.995Z,76.80
2023-03-11T09:16:16.390Z,76.80
2023-03-11T09:18:44.107Z,76.56
2023-03-11T09:21:13.999Z,76.56
2023-03-11T09:23:44.187Z,76.53
2023-03-11T09:26:12.615Z,76.42
2023-03-11T09:28:40.405Z,76.35
2023-03-11T09:31:09.146Z,76.24
2023-03-11T09:33:41.572Z,76.25
2023-03-11T09:36:12.509Z,75.94
2023-03-11T09:38:39.693Z,76.11
2023-03-11T09:41:27.298Z,76.09
2023-03-11T09:44:28.206Z,76.06
2023-03-11T09:47:04.582Z,75.90
2023-03-11T09:49:59.576Z,75.89
2023-03-11T09:53:04.657Z,75.71
2023-03-11T09:55:47.367Z,75.60
2023-03-11T09:58:14.599Z,75.50
2023-03-11T10:00:42.153Z,75.67
2023-03-11T10:03:23.498Z,75.62
2023-03-11T10:05:52.664Z,75.28
2023-03-11T10:08:44.302Z,75.40
2023-03-11T10:11:24.370Z,75.11
2023-03-11T10:14:26.969Z,75.23
2023-03-11T10:17:18.493Z,75.19
2023-03-11T10:19:48.464Z,75.15
2023-03-11T10:22:31.063Z,75.30
2023-03-11T10:25:02.690Z,75.27
2023-03-11T10:27:42.704Z,75.38
2023-03-11T10:30:19.861Z,75.25
2023-03-11T10:32:55.216Z,74.71
2023-03-11T10:35:28.468Z,74.51
2023-03-11T10:38:03.161Z,74.70
2023-03-11T10:40:37.181Z,75.02
2023-03-11T10:43:11.425Z,74.35
2023-03-11T10:45:44.956Z,74.57
2023-03-11T10:48:14.980Z,74.59
2023-03-11T10:51:02.090Z,74.84
2023-03-11T10:53:30.355Z,74.74
2023-03-11T10:55:59.715Z,74.92
2023-03-11T10:58:30.761Z,75.01
2023-03-11T11:01:15.543Z,74.89
2023-03-11T11:03:48.334Z,74.90
2023-03-11T11:06:37.621Z,75.12
2023-03-11T11:09:22.077Z,74.52
2023-03-11T11:12:12.154Z,74.81
2023-03-11T11:14:51.424Z,74.39
2023-03-11T11:17:30.795Z,74.56
2023-03-11T11:19:59.399Z,74.14
2023-03-11T11:22:27.004Z,71.07
2023-03-11T11:24:56.107Z,72.15
2023-03-11T11:27:27.732Z,72.75
2023-03-11T11:30:04.655Z,72.61
2023-03-11T11:32:31.802Z,73.04
2023-03-11T11:35:07.612Z,72.97
2023-03-11T11:37:38.003Z,73.14
2023-03-11T11:40:23.718Z,72.68
2023-03-11T11:43:19.929Z,73.28
2023-03-11T11:45:54.461Z,73.32
2023-03-11T11:48:29.921Z,73.20
2023-03-11T11:51:00.813Z,73.03
2023-03-11T11:53:43.106Z,72.98
2023-03-11T11:56:10.453Z,73.22
2023-03-11T11:58:38.001Z,73.17
2023-03-11T12:01:44.756Z,72.17
2023-03-11T12:04:39.596Z,71.62
2023-03-11T12:07:23.192Z,71.13
2023-03-11T12:10:24.035Z,70.81
2023-03-11T12:12:59.168Z,71.16
2023-03-11T12:15:34.468Z,71.19
2023-03-11T12:18:08.936Z,70.45
2023-03-11T12:20:42.767Z,70.84
2023-03-11T12:23:34.385Z,70.50
2023-03-11T12:26:05.414Z,70.82
2023-03-11T12:28:45.796Z,71.00
2023-03-11T12:31:14.028Z,71.49
2023-03-11T12:33:48.087Z,71.18
2023-03-11T12:36:25.457Z,70.92
2023-03-11T12:38:54.527Z,70.77
2023-03-11T12:41:31.853Z,70.82
2023-03-11T12:44:04.876Z,70.69
2023-03-11T12:46:54.171Z,71.02
2023-03-11T12:49:32.595Z,71.18
2023-03-11T12:52:12.141Z,71.12
2023-03-11T12:54:44.839Z,71.77
2023-03-11T12:57:18.506Z,71.28
2023-03-11T13:00:07.888Z,71.73
2023-03-11T13:02:53.721Z,71.40
2023-03-11T13:05:42.414Z,70.80
2023-03-11T13:08:15.981Z,70.42
2023-03-11T13:10:54.060Z,69.98
2023-03-11T13:13:33.207Z,69.90
2023-03-11T13:16:15.603Z,69.68
2023-03-11T13:18:48.244Z,69.38
2023-03-11T13:21:27.634Z,69.39
2023-03-11T13:24:16.456Z,69.20
2023-03-11T13:27:08.952Z,69.23
2023-03-11T13:29:41.755Z,68.94
2023-03-11T13:33:03.432Z,68.87
2023-03-11T13:35:40.976Z,68.78
2023-03-11T13:38:38.383Z,63.80
2023-03-11T13:41:25.786Z,64.14
2023-03-11T13:43:55.654Z,65.39
2023-03-11T13:46:38.519Z,66.27
2023-03-11T13:49:34.111Z,66.98
2023-03-11T13:52:03.330Z,66.95
2023-03-11T13:54:36.312Z,66.85
2023-03-11T13:57:04.206Z,67.04
2023-03-11T13:59:33.851Z,66.44
2023-03-11T14:02:14.896Z,66.91
2023-03-11T14:04:47.932Z,67.46
2023-03-11T14:07:20.289Z,67.10
2023-03-11T14:09:47.461Z,66.91
2023-03-11T14:12:18.608Z,66.90
2023-03-11T14:14:56.600Z,67.28
2023-03-11T14:17:23.663Z,67.54
2023-03-11T14:20:17.639Z,67.99
2023-03-11T14:22:52.338Z,68.19
2023-03-11T14:25:26.074Z,68.30
2023-03-11T14:28:03.352Z,68.24
2023-03-11T14:30:33.280Z,68.49
2023-03-11T14:33:06.239Z,68.82
2023-03-11T14:35:34.423Z,68.87
2023-03-11T14:38:01.995Z,68.86
2023-03-11T14:40:38.048Z,69.00
2023-03-11T14:43:10.401Z,69.04
2023-03-11T14:45:40.458Z,69.26
2023-03-11T14:48:19.655Z,69.20
2023-03-11T14:50:49.704Z,69.20
2023-03-11T14:53:24.447Z,69.55
2023-03-11T14:56:08.961Z,69.81
2023-03-11T14:58:46.400Z,69.91
2023-03-11T15:01:22.842Z,69.92
2023-03-11T15:03:59.151Z,70.04
2023-03-11T15:06:32.976Z,69.97
2023-03-11T15:09:11.038Z,70.06
2023-03-11T15:11:57.837Z,70.21
2023-03-11T15:14:26.461Z,70.29
2023-03-11T15:16:55.574Z,70.24
2023-03-11T15:19:28.991Z,70.27
2023-03-11T15:22:24.423Z,70.26
2023-03-11T15:25:00.718Z,70.27
2023-03-11T15:27:37.207Z,70.29
2023-03-11T15:30:19.475Z,70.61
2023-03-11T15:32:47.762Z,70.58
2023-03-11T15:35:18.867Z,70.60
2023-03-11T15:37:48.061Z,70.53
2023-03-11T15:40:42.414Z,70.55
2023-03-11T15:43:15.077Z,70.58
2023-03-11T15:45:43.839Z,70.65
2023-03-11T15:48:12.726Z,70.59
2023-03-11T15:51:06.584Z,70.57
2023-03-11T15:53:33.767Z,70.61
2023-03-11T15:56:08.285Z,70.55
2023-03-11T15:58:37.709Z,70.55
2023-03-11T16:01:05.130Z,70.59
2023-03-11T16:03:32.536Z,70.58
2023-03-11T16:05:59.626Z,70.42
2023-03-11T16:08:26.978Z,70.31
2023-03-11T16:10:54.114Z,70.43
2023-03-11T16:13:21.277Z,70.37
2023-03-11T16:15:48.462Z,70.50
2023-03-11T16:18:16.056Z,70.47
2023-03-11T16:20:55.695Z,70.47
2023-03-11T16:23:26.280Z,70.14
2023-03-11T16:26:04.163Z,70.26
2023-03-11T16:28:31.969Z,70.20
2023-03-11T16:30:59.144Z,70.33
2023-03-11T16:33:26.533Z,70.29
2023-03-11T16:35:53.469Z,70.37
2023-03-11T16:38:23.385Z,70.31
2023-03-11T16:40:58.723Z,70.22
2023-03-11T16:43:27.375Z,70.32
2023-03-11T16:45:55.183Z,70.33
2023-03-11T16:48:23.447Z,70.35
2023-03-11T16:50:50.504Z,70.42
2023-03-11T16:53:18.042Z,70.42
2023-03-11T16:55:46.063Z,70.48
2023-03-11T16:58:14.642Z,70.62
2023-03-11T17:00:42.254Z,70.76
2023-03-11T17:03:12.709Z,70.80
2023-03-11T17:05:41.335Z,70.72
2023-03-11T17:08:08.799Z,70.86
2023-03-11T17:10:41.029Z,70.65
2023-03-11T17:13:08.585Z,70.84
2023-03-11T17:15:36.203Z,70.68
2023-03-11T17:18:03.754Z,70.83
2023-03-11T17:20:30.744Z,70.81
2023-03-11T17:22:57.916Z,70.73
2023-03-11T17:25:27.661Z,70.96
2023-03-11T17:27:54.804Z,70.97
2023-03-11T17:30:36.092Z,71.07
2023-03-11T17:33:05.194Z,70.94
2023-03-11T17:35:32.791Z,71.10
2023-03-11T17:38:00.128Z,71.16
2023-03-11T17:40:29.441Z,71.00
2023-03-11T17:42:56.689Z,71.10
2023-03-11T17:45:23.771Z,70.98
2023-03-11T17:47:50.896Z,70.99
2023-03-11T17:50:21.964Z,70.98
2023-03-11T17:52:49.212Z,70.97
2023-03-11T17:55:16.259Z,69.15
2023-03-11T17:57:45.883Z,70.04
2023-03-11T18:00:16.706Z,70.11
2023-03-11T18:02:43.897Z,70.14
2023-03-11T18:05:11.026Z,70.28
2023-03-11T18:07:42.842Z,70.42
2023-03-11T18:10:12.752Z,70.52
2023-03-11T18:12:43.368Z,70.49
2023-03-11T18:15:16.346Z,70.71
2023-03-11T18:17:43.476Z,70.75
2023-03-11T18:20:11.306Z,70.92
2023-03-11T18:22:40.165Z,70.84
2023-03-11T18:25:12.967Z,70.68
2023-03-11T18:27:40.294Z,70.74
2023-03-11T18:30:08.471Z,70.81
2023-03-11T18:32:35.898Z,70.81
2023-03-11T18:35:03.044Z,71.03
2023-03-11T18:37:31.871Z,70.94
2023-03-11T18:39:58.860Z,71.04
2023-03-11T18:42:26.057Z,70.90
2023-03-11T18:44:53.124Z,70.84
2023-03-11T18:47:20.430Z,70.75
2023-03-11T18:49:47.610Z,70.91
2023-03-11T18:52:17.691Z,70.97
2023-03-11T18:54:45.004Z,71.03
2023-03-11T18:57:12.239Z,71.07
2023-03-11T18:59:39.484Z,71.06
2023-03-11T19:02:06.895Z,71.16
2023-03-11T19:04:34.361Z,71.32
2023-03-11T19:07:01.612Z,71.30
2023-03-11T19:09:28.741Z,71.32
2023-03-11T19:11:58.222Z,71.38
2023-03-11T19:14:25.360Z,71.45
2023-03-11T19:16:52.391Z,71.49
2023-03-11T19:19:19.728Z,71.35
2023-03-11T19:21:47.936Z,71.42
2023-03-11T19:24:15.390Z,71.37
2023-03-11T19:26:45.780Z,71.37
2023-03-11T19:29:14.679Z,71.35
2023-03-11T19:31:43.915Z,71.36
2023-03-11T19:34:14.520Z,71.38
2023-03-11T19:36:41.717Z,71.47
2023-03-11T19:39:09.359Z,71.26
2023-03-11T19:41:36.545Z,71.42
2023-03-11T19:44:04.380Z,71.39
2023-03-11T19:46:34.875Z,71.48
2023-03-11T19:49:03.102Z,71.55
2023-03-11T19:51:42.610Z,71.66
2023-03-11T19:54:16.456Z,71.63
2023-03-11T19:56:43.927Z,71.46
2023-03-11T19:59:11.339Z,71.58
2023-03-11T20:01:38.445Z,71.61
2023-03-11T20:04:05.935Z,71.55
2023-03-11T20:06:33.101Z,71.64
2023-03-11T20:09:00.429Z,71.57
2023-03-11T20:11:27.491Z,71.57
2023-03-11T20:13:54.561Z,71.68
2023-03-11T20:16:21.706Z,71.73
2023-03-11T20:18:50.538Z,71.56
2023-03-11T20:21:19.847Z,71.60
2023-03-11T20:23:48.991Z,71.65
2023-03-11T20:26:19.200Z,71.70
2023-03-11T20:28:46.541Z,71.68
2023-03-11T20:31:22.108Z,71.84
2023-03-11T20:33:50.737Z,71.87
2023-03-11T20:36:21.696Z,71.87
2023-03-11T20:38:51.126Z,71.91
2023-03-11T20:41:18.747Z,71.92
2023-03-11T20:43:46.134Z,72.03
2023-03-11T20:46:13.679Z,72.02
2023-03-11T20:48:40.976Z,72.05
2023-03-11T20:51:12.380Z,72.12
2023-03-11T20:53:40.106Z,72.03
2023-03-11T20:56:16.331Z,72.16
2023-03-11T20:58:45.750Z,72.18
2023-03-11T21:01:20.119Z,72.20
2023-03-11T21:03:47.945Z,72.16
2023-03-11T21:06:33.509Z,72.23
2023-03-11T21:09:02.443Z,72.16
2023-03-11T21:11:29.535Z,72.21
2023-03-11T21:13:57.652Z,72.21
2023-03-11T21:16:27.162Z,72.39
2023-03-11T21:18:54.572Z,72.32
2023-03-11T21:21:22.070Z,72.26
2023-03-11T21:23:49.962Z,72.40
2023-03-11T21:26:18.088Z,72.54
2023-03-11T21:28:47.066Z,72.49
2023-03-11T21:31:19.852Z,72.64
2023-03-11T21:33:48.460Z,72.70
2023-03-11T21:36:17.286Z,72.77
2023-03-11T21:38:46.343Z,72.78
2023-03-11T21:41:20.841Z,73.00
2023-03-11T21:43:48.186Z,72.93
2023-03-11T21:46:17.980Z,73.04
2023-03-11T21:48:46.779Z,73.09
2023-03-11T21:51:15.342Z,73.34
2023-03-11T21:53:43.261Z,73.46
2023-03-11T21:56:11.010Z,73.64
2023-03-11T21:58:38.167Z,73.68
2023-03-11T22:01:05.410Z,73.89
2023-03-11T22:03:35.831Z,73.82
2023-03-11T22:06:06.433Z,74.02
2023-03-11T22:08:34.042Z,74.02
2023-03-11T22:11:03.847Z,74.28
2023-03-11T22:13:31.455Z,74.36
2023-03-11T22:16:02.278Z,74.57
2023-03-11T22:18:29.578Z,74.49
2023-03-11T22:20:58.747Z,74.65
2023-03-11T22:23:26.078Z,74.74
2023-03-11T22:25:53.364Z,74.71
2023-03-11T22:28:20.655Z,74.69
2023-03-11T22:30:49.050Z,74.64
2023-03-11T22:33:16.297Z,74.75
2023-03-11T22:35:50.484Z,74.73
2023-03-11T22:38:17.895Z,74.67
2023-03-11T22:40:44.868Z,74.79
2023-03-11T22:43:12.411Z,74.77
2023-03-11T22:45:39.705Z,74.73
2023-03-11T22:48:07.032Z,74.82
2023-03-11T22:50:34.139Z,74.92
2023-03-11T22:53:01.457Z,74.89
2023-03-11T22:55:28.487Z,75.05
2023-03-11T22:57:55.598Z,75.08
2023-03-11T23:00:23.813Z,75.32
2023-03-11T23:02:56.803Z,75.39
2023-03-11T23:05:24.581Z,75.34
2023-03-11T23:07:51.902Z,75.79
2023-03-11T23:10:21.367Z,75.96
2023-03-11T23:12:48.957Z,76.18
2023-03-11T23:15:18.993Z,76.36
2023-03-11T23:17:46.279Z,76.46
2023-03-11T23:20:15.592Z,76.44
2023-03-11T23:22:45.874Z,76.62
2023-03-11T23:25:16.684Z,76.76
2023-03-11T23:27:49.233Z,76.79
2023-03-11T23:30:17.228Z,76.91
2023-03-11T23:32:45.186Z,76.78
2023-03-11T23:35:13.123Z,76.90
2023-03-11T23:37:42.532Z,77.01
2023-03-11T23:40:10.622Z,76.95
2023-03-11T23:42:37.712Z,77.08
2023-03-11T23:45:05.497Z,77.21
2023-03-11T23:47:32.521Z,77.37
2023-03-11T23:49:59.711Z,77.32
2023-03-11T23:52:26.897Z,77.34
2023-03-11T23:54:56.426Z,77.37
2023-03-11T23:57:23.474Z,77.41
2023-03-11T23:59:50.621Z,77.66
